createdAt,value
2017-12-04T00:00:00.463Z,1014.25
2017-12-04T00:01:00.472Z,1014.15
2017-12-04T00:02:53.627Z,1014.07
2017-12-04T00:03:53.612Z,1014.08
2017-12-04T00:05:46.754Z,1014.18
2017-12-04T00:06:46.770Z,1014.27
2017-12-04T00:08:39.923Z,1014.30
2017-12-04T00:09:39.932Z,1014.36
2017-12-04T00:11:33.081Z,1014.35
2017-12-04T00:12:33.093Z,1014.41
2017-12-04T00:14:26.281Z,1014.37
2017-12-04T00:15:26.275Z,1014.33
2017-12-04T00:17:19.433Z,1014.33
2017-12-04T00:18:19.424Z,1014.31
2017-12-04T00:20:12.587Z,1014.24
2017-12-04T00:21:12.623Z,1014.24
2017-12-04T00:23:05.753Z,1014.19
2017-12-04T00:24:05.751Z,1014.21
2017-12-04T00:25:58.909Z,1014.20
2017-12-04T00:26:58.903Z,1014.23
2017-12-04T00:28:52.039Z,1014.25
2017-12-04T00:29:52.058Z,1014.26
2017-12-04T00:31:45.221Z,1014.32
2017-12-04T00:32:45.231Z,1014.31
2017-12-04T00:34:38.368Z,1014.31
2017-12-04T00:35:38.393Z,1014.28
2017-12-04T00:37:31.543Z,1014.30
2017-12-04T00:38:31.547Z,1014.28
2017-12-04T00:40:24.681Z,1014.33
2017-12-04T00:41:24.698Z,1014.28
2017-12-04T00:43:17.872Z,1014.23
2017-12-04T00:44:17.869Z,1014.31
2017-12-04T00:46:11.024Z,1014.33
2017-12-04T00:47:11.117Z,1014.40
2017-12-04T00:49:04.204Z,1014.42
2017-12-04T00:50:04.201Z,1014.46
2017-12-04T00:51:57.359Z,1014.50
2017-12-04T00:52:57.356Z,1014.46
2017-12-04T00:54:50.511Z,1014.49
2017-12-04T00:55:50.511Z,1014.56
2017-12-04T00:57:43.656Z,1014.56
2017-12-04T00:58:43.676Z,1014.52
2017-12-04T01:00:36.830Z,1014.47
2017-12-04T01:01:36.833Z,1014.51
2017-12-04T01:03:29.977Z,1014.56
2017-12-04T01:04:29.995Z,1014.54
2017-12-04T01:06:23.144Z,1014.54
2017-12-04T01:07:23.148Z,1014.63
2017-12-04T01:09:16.323Z,1014.59
2017-12-04T01:10:16.327Z,1014.57
2017-12-04T01:12:09.474Z,1014.58
2017-12-04T01:13:09.473Z,1014.65
2017-12-04T01:15:02.634Z,1014.62
2017-12-04T01:16:02.638Z,1014.62
2017-12-04T01:17:55.801Z,1014.65
2017-12-04T01:18:55.800Z,1014.63
2017-12-04T01:20:48.988Z,1014.63
2017-12-04T01:21:48.959Z,1014.63
2017-12-04T01:23:42.152Z,1014.62
2017-12-04T01:24:42.119Z,1014.61
2017-12-04T01:26:35.269Z,1014.61
2017-12-04T01:27:35.276Z,1014.66
2017-12-04T01:29:28.446Z,1014.65
2017-12-04T01:30:28.454Z,1014.60
2017-12-04T01:32:21.595Z,1014.60
2017-12-04T01:33:21.600Z,1014.61
2017-12-04T01:35:14.802Z,1014.58
2017-12-04T01:36:14.762Z,1014.58
2017-12-04T01:38:07.913Z,1014.52
2017-12-04T01:39:07.936Z,1014.50
2017-12-04T01:41:01.094Z,1014.48
2017-12-04T01:42:01.080Z,1014.43
2017-12-04T01:43:54.222Z,1014.40
2017-12-04T01:44:54.230Z,1014.33
2017-12-04T01:46:47.491Z,1014.26
2017-12-04T01:47:47.457Z,1014.27
2017-12-04T01:49:40.598Z,1014.20
2017-12-04T01:50:41.348Z,1014.17
2017-12-04T01:52:33.785Z,1014.09
2017-12-04T01:53:33.782Z,1014.06
2017-12-04T01:55:26.935Z,1014.07
2017-12-04T01:56:26.970Z,1014.13
2017-12-04T01:58:20.105Z,1014.16
2017-12-04T01:59:20.104Z,1014.14
2017-12-04T02:01:13.249Z,1014.22
2017-12-04T02:02:13.248Z,1014.19
2017-12-04T02:04:06.396Z,1014.17
2017-12-04T02:05:06.397Z,1014.19
2017-12-04T02:06:59.538Z,1014.18
2017-12-04T02:07:59.562Z,1014.16
2017-12-04T02:09:52.704Z,1014.18
2017-12-04T02:10:52.705Z,1014.20
2017-12-04T02:12:45.842Z,1014.23
2017-12-04T02:13:45.867Z,1014.21
2017-12-04T02:15:39.001Z,1014.21
2017-12-04T02:16:39.001Z,1014.20
2017-12-04T02:18:32.171Z,1014.17
2017-12-04T02:19:32.181Z,1014.16
2017-12-04T02:21:25.320Z,1014.15
2017-12-04T02:22:25.351Z,1014.15
2017-12-04T02:24:18.491Z,1014.13
2017-12-04T02:25:18.495Z,1014.18
2017-12-04T02:27:11.644Z,1014.12
2017-12-04T02:28:11.649Z,1014.10
2017-12-04T02:30:04.805Z,1014.08
2017-12-04T02:31:04.796Z,1014.07
2017-12-04T02:32:57.963Z,1014.05
2017-12-04T02:33:57.958Z,1014.00
2017-12-04T02:35:51.133Z,1014.01
2017-12-04T02:36:51.130Z,1014.00
2017-12-04T02:38:44.273Z,1013.96
2017-12-04T02:39:44.278Z,1013.96
2017-12-04T02:41:37.441Z,1013.95
2017-12-04T02:42:37.457Z,1013.91
2017-12-04T02:44:30.630Z,1013.90
2017-12-04T02:45:30.617Z,1013.90
2017-12-04T02:47:23.756Z,1013.87
2017-12-04T02:48:23.774Z,1013.84
2017-12-04T02:50:16.934Z,1013.85
2017-12-04T02:51:16.933Z,1013.84
2017-12-04T02:53:10.095Z,1013.85
2017-12-04T02:54:10.100Z,1013.89
2017-12-04T02:56:03.392Z,1013.85
2017-12-04T02:57:03.253Z,1013.83
2017-12-04T02:58:56.390Z,1013.85
2017-12-04T02:59:56.406Z,1013.85
2017-12-04T03:01:49.577Z,1013.93
2017-12-04T03:02:49.572Z,1013.89
2017-12-04T03:04:42.725Z,1013.88
2017-12-04T03:05:42.736Z,1013.86
2017-12-04T03:07:35.909Z,1013.85
2017-12-04T03:08:35.902Z,1013.82
2017-12-04T03:10:29.051Z,1013.80
2017-12-04T03:11:29.059Z,1013.76
2017-12-04T03:13:22.243Z,1013.77
2017-12-04T03:14:22.238Z,1013.78
2017-12-04T03:16:15.391Z,1013.76
2017-12-04T03:17:15.398Z,1013.76
2017-12-04T03:19:20.278Z,1013.74
2017-12-04T03:20:20.271Z,1013.72
2017-12-04T03:22:13.427Z,1013.68
2017-12-04T03:23:13.427Z,1013.67
2017-12-04T03:25:06.620Z,1013.71
2017-12-04T03:26:06.631Z,1013.73
2017-12-04T03:27:59.769Z,1013.67
2017-12-04T03:28:59.789Z,1013.61
2017-12-04T03:30:52.940Z,1013.57
2017-12-04T03:31:52.945Z,1013.56
2017-12-04T03:33:46.096Z,1013.48
2017-12-04T03:34:46.117Z,1013.51
2017-12-04T03:36:39.291Z,1013.58
2017-12-04T03:37:39.286Z,1013.63
2017-12-04T03:39:32.474Z,1013.60
2017-12-04T03:40:32.449Z,1013.63
2017-12-04T03:42:25.595Z,1013.61
2017-12-04T03:43:25.597Z,1013.62
2017-12-04T03:45:18.734Z,1013.67
2017-12-04T03:46:18.746Z,1013.64
2017-12-04T03:48:11.910Z,1013.62
2017-12-04T03:49:11.910Z,1013.66
2017-12-04T03:51:05.052Z,1013.65
2017-12-04T03:52:05.177Z,1013.64
2017-12-04T03:53:58.279Z,1013.66
2017-12-04T03:54:58.279Z,1013.68
2017-12-04T03:57:05.719Z,1013.65
2017-12-04T03:58:05.747Z,1013.61
2017-12-04T03:59:57.905Z,1013.55
2017-12-04T04:00:57.906Z,1013.57
2017-12-04T04:02:51.046Z,1013.41
2017-12-04T04:03:51.084Z,1013.45
2017-12-04T04:05:44.241Z,1013.44
2017-12-04T04:06:44.213Z,1013.47
2017-12-04T04:08:37.359Z,1013.48
2017-12-04T04:09:37.369Z,1013.45
2017-12-04T04:11:31.261Z,1013.43
2017-12-04T04:12:30.538Z,1013.38
2017-12-04T04:14:23.690Z,1013.47
2017-12-04T04:15:23.705Z,1013.54
2017-12-04T04:17:16.946Z,1013.61
2017-12-04T04:18:16.856Z,1013.55
2017-12-04T04:20:10.004Z,1013.49
2017-12-04T04:21:10.015Z,1013.50
2017-12-04T04:23:03.203Z,1013.58
2017-12-04T04:24:03.162Z,1013.58
2017-12-04T04:25:56.311Z,1013.68
2017-12-04T04:26:56.318Z,1013.66
2017-12-04T04:28:49.485Z,1013.63
2017-12-04T04:29:49.485Z,1013.63
2017-12-04T04:31:54.308Z,1013.70
2017-12-04T04:32:54.314Z,1013.69
2017-12-04T04:34:47.506Z,1013.66
2017-12-04T04:35:47.509Z,1013.63
2017-12-04T04:37:40.650Z,1013.57
2017-12-04T04:38:40.670Z,1013.54
2017-12-04T04:40:33.837Z,1013.48
2017-12-04T04:41:33.831Z,1013.41
2017-12-04T04:43:26.983Z,1013.52
2017-12-04T04:44:26.980Z,1013.55
2017-12-04T04:46:20.159Z,1013.62
2017-12-04T04:47:20.160Z,1013.62
2017-12-04T04:49:13.417Z,1013.61
2017-12-04T04:50:13.321Z,1013.59
2017-12-04T04:52:06.491Z,1013.56
2017-12-04T04:53:06.496Z,1013.58
2017-12-04T04:54:59.682Z,1013.69
2017-12-04T04:55:59.685Z,1013.69
2017-12-04T04:57:52.854Z,1013.72
2017-12-04T04:58:52.847Z,1013.72
2017-12-04T05:00:46.006Z,1013.80
2017-12-04T05:01:46.007Z,1013.71
2017-12-04T05:03:39.179Z,1013.81
2017-12-04T05:04:39.181Z,1013.80
2017-12-04T05:06:32.323Z,1013.83
2017-12-04T05:07:32.340Z,1013.81
2017-12-04T05:09:25.510Z,1013.80
2017-12-04T05:10:25.508Z,1013.71
2017-12-04T05:12:18.654Z,1013.76
2017-12-04T05:13:18.767Z,1013.64
2017-12-04T05:15:11.856Z,1013.71
2017-12-04T05:16:11.876Z,1013.73
2017-12-04T05:18:05.002Z,1013.77
2017-12-04T05:19:05.007Z,1013.73
2017-12-04T05:20:58.141Z,1013.77
2017-12-04T05:21:58.152Z,1013.77
2017-12-04T05:23:51.310Z,1013.78
2017-12-04T05:24:51.307Z,1013.83
2017-12-04T05:26:44.458Z,1013.86
2017-12-04T05:27:44.458Z,1013.89
2017-12-04T05:29:37.601Z,1013.83
2017-12-04T05:30:37.628Z,1013.82
2017-12-04T05:32:30.782Z,1013.86
2017-12-04T05:33:30.783Z,1013.85
2017-12-04T05:35:23.931Z,1013.83
2017-12-04T05:36:23.936Z,1013.86
2017-12-04T05:38:17.090Z,1013.82
2017-12-04T05:39:17.095Z,1013.78
2017-12-04T05:41:10.243Z,1013.90
2017-12-04T05:42:10.260Z,1013.82
2017-12-04T05:44:03.399Z,1013.87
2017-12-04T05:45:03.397Z,1013.82
2017-12-04T05:46:56.530Z,1013.89
2017-12-04T05:47:56.546Z,1013.91
2017-12-04T05:49:49.746Z,1013.81
2017-12-04T05:50:49.738Z,1013.91
2017-12-04T05:52:42.940Z,1013.90
2017-12-04T05:53:42.922Z,1013.93
2017-12-04T05:55:36.072Z,1013.87
2017-12-04T05:56:36.092Z,1013.84
2017-12-04T05:58:29.203Z,1013.77
2017-12-04T05:59:29.224Z,1013.84
2017-12-04T06:01:22.383Z,1013.91
2017-12-04T06:02:22.378Z,1013.88
2017-12-04T06:04:15.524Z,1013.85
2017-12-04T06:05:15.550Z,1013.91
2017-12-04T06:07:08.710Z,1013.82
2017-12-04T06:08:08.706Z,1013.83
2017-12-04T06:10:01.860Z,1013.79
2017-12-04T06:11:01.866Z,1013.67
2017-12-04T06:12:55.029Z,1013.61
2017-12-04T06:13:55.021Z,1013.60
2017-12-04T06:15:48.169Z,1013.76
2017-12-04T06:16:48.185Z,1013.81
2017-12-04T06:18:41.471Z,1013.89
2017-12-04T06:19:41.345Z,1013.96
2017-12-04T06:21:34.478Z,1013.92
2017-12-04T06:22:34.489Z,1014.02
2017-12-04T06:24:27.687Z,1013.94
2017-12-04T06:25:27.665Z,1013.94
2017-12-04T06:27:20.818Z,1013.97
2017-12-04T06:28:20.839Z,1013.96
2017-12-04T06:30:13.994Z,1014.02
2017-12-04T06:31:14.004Z,1014.07
2017-12-04T06:33:07.169Z,1014.04
2017-12-04T06:34:07.165Z,1014.06
2017-12-04T06:36:00.323Z,1014.03
2017-12-04T06:37:00.320Z,1014.08
2017-12-04T06:38:53.478Z,1014.11
2017-12-04T06:39:53.493Z,1014.13
2017-12-04T06:41:46.648Z,1014.22
2017-12-04T06:42:46.652Z,1014.21
2017-12-04T06:44:39.807Z,1014.17
2017-12-04T06:45:39.818Z,1014.25
2017-12-04T06:47:32.966Z,1014.22
2017-12-04T06:48:33.051Z,1014.27
2017-12-04T06:50:26.116Z,1014.25
2017-12-04T06:51:26.123Z,1014.29
2017-12-04T06:53:19.337Z,1014.35
2017-12-04T06:54:19.299Z,1014.36
2017-12-04T06:56:12.440Z,1014.38
2017-12-04T06:57:12.450Z,1014.37
2017-12-04T06:59:05.635Z,1014.40
2017-12-04T07:00:05.645Z,1014.39
2017-12-04T07:01:58.827Z,1014.45
2017-12-04T07:02:58.853Z,1014.44
2017-12-04T07:04:52.018Z,1014.46
2017-12-04T07:05:52.025Z,1014.52
2017-12-04T07:07:45.199Z,1014.55
2017-12-04T07:08:45.191Z,1014.56
2017-12-04T07:10:38.384Z,1014.55
2017-12-04T07:11:38.365Z,1014.69
2017-12-04T07:13:31.503Z,1014.64
2017-12-04T07:14:31.526Z,1014.66
2017-12-04T07:16:24.727Z,1014.66
2017-12-04T07:17:24.662Z,1014.67
2017-12-04T07:19:17.805Z,1014.65
2017-12-04T07:20:17.817Z,1014.66
2017-12-04T07:22:11.017Z,1014.76
2017-12-04T07:23:10.980Z,1014.73
2017-12-04T07:25:04.144Z,1014.86
2017-12-04T07:26:04.151Z,1014.88
2017-12-04T07:27:57.323Z,1014.85
2017-12-04T07:28:57.318Z,1014.90
2017-12-04T07:30:50.457Z,1014.87
2017-12-04T07:31:50.474Z,1014.86
2017-12-04T07:33:43.629Z,1014.82
2017-12-04T07:34:43.635Z,1014.89
2017-12-04T07:36:36.778Z,1014.85
2017-12-04T07:37:36.793Z,1014.88
2017-12-04T07:39:41.640Z,1014.90
2017-12-04T07:40:41.636Z,1014.96
2017-12-04T07:42:34.770Z,1014.92
2017-12-04T07:43:34.852Z,1014.87
2017-12-04T07:45:27.949Z,1015.03
2017-12-04T07:46:27.945Z,1015.09
2017-12-04T07:48:21.129Z,1015.07
2017-12-04T07:49:21.127Z,1015.07
2017-12-04T07:51:14.271Z,1015.08
2017-12-04T07:52:14.286Z,1015.07
2017-12-04T07:54:07.462Z,1015.15
2017-12-04T07:55:07.431Z,1015.13
2017-12-04T07:57:00.589Z,1015.16
2017-12-04T07:58:00.591Z,1015.20
2017-12-04T07:59:53.732Z,1015.17
2017-12-04T08:00:53.757Z,1015.24
2017-12-04T08:02:46.909Z,1015.22
2017-12-04T08:03:46.910Z,1015.20
2017-12-04T08:05:40.055Z,1015.19
2017-12-04T08:06:40.070Z,1015.17
2017-12-04T08:08:33.244Z,1015.10
2017-12-04T08:09:33.245Z,1015.10
2017-12-04T08:11:26.399Z,1015.15
2017-12-04T08:12:26.410Z,1015.12
2017-12-04T08:14:19.686Z,1015.16
2017-12-04T08:15:19.672Z,1015.18
2017-12-04T08:17:12.813Z,1015.17
2017-12-04T08:18:12.837Z,1015.20
2017-12-04T08:20:06.026Z,1015.27
2017-12-04T08:21:06.016Z,1015.25
2017-12-04T08:22:59.184Z,1015.33
2017-12-04T08:23:59.171Z,1015.34
2017-12-04T08:25:52.362Z,1015.35
2017-12-04T08:26:52.354Z,1015.35
2017-12-04T08:28:45.512Z,1015.40
2017-12-04T08:29:45.509Z,1015.40
2017-12-04T08:31:38.670Z,1015.45
2017-12-04T08:32:38.670Z,1015.50
2017-12-04T08:34:31.826Z,1015.48
2017-12-04T08:35:31.852Z,1015.50
2017-12-04T08:37:25.152Z,1015.44
2017-12-04T08:38:25.149Z,1015.49
2017-12-04T08:40:18.287Z,1015.52
2017-12-04T08:41:18.304Z,1015.51
2017-12-04T08:43:11.473Z,1015.58
2017-12-04T08:44:11.468Z,1015.60
2017-12-04T08:46:04.609Z,1015.60
2017-12-04T08:47:04.635Z,1015.61
2017-12-04T08:48:57.791Z,1015.61
2017-12-04T08:49:57.798Z,1015.66
2017-12-04T08:51:50.938Z,1015.67
2017-12-04T08:52:50.953Z,1015.66
2017-12-04T08:54:44.124Z,1015.67
2017-12-04T08:55:44.114Z,1015.65
2017-12-04T08:57:37.256Z,1015.72
2017-12-04T08:58:37.332Z,1015.63
2017-12-04T09:00:30.453Z,1015.70
2017-12-04T09:01:30.429Z,1015.69
2017-12-04T09:03:23.586Z,1015.77
2017-12-04T09:04:23.593Z,1015.67
2017-12-04T09:06:16.778Z,1015.76
2017-12-04T09:07:16.749Z,1015.74
2017-12-04T09:09:09.901Z,1015.78
2017-12-04T09:10:09.934Z,1015.79
2017-12-04T09:12:03.108Z,1015.84
2017-12-04T09:13:03.076Z,1015.75
2017-12-04T09:14:56.210Z,1015.76
2017-12-04T09:15:56.237Z,1015.70
2017-12-04T09:17:49.396Z,1015.77
2017-12-04T09:18:49.393Z,1015.82
2017-12-04T09:20:42.534Z,1015.74
2017-12-04T09:21:42.558Z,1015.72
2017-12-04T09:23:50.065Z,1015.71
2017-12-04T09:24:50.052Z,1015.70
2017-12-04T09:26:43.195Z,1015.74
2017-12-04T09:27:43.220Z,1015.78
2017-12-04T09:29:36.372Z,1015.82
2017-12-04T09:30:36.372Z,1015.77
2017-12-04T09:32:29.512Z,1015.88
2017-12-04T09:33:29.543Z,1015.88
2017-12-04T09:35:22.683Z,1015.92
2017-12-04T09:36:22.694Z,1015.94
2017-12-04T09:38:15.833Z,1015.85
2017-12-04T09:39:15.854Z,1015.97
2017-12-04T09:41:09.006Z,1015.95
2017-12-04T09:42:09.004Z,1016.01
2017-12-04T09:44:02.168Z,1015.96
2017-12-04T09:45:02.164Z,1016.04
2017-12-04T09:46:55.337Z,1016.09
2017-12-04T09:47:55.337Z,1016.06
2017-12-04T09:49:48.579Z,1016.09
2017-12-04T09:50:48.495Z,1016.08
2017-12-04T09:52:41.658Z,1016.06
2017-12-04T09:53:41.656Z,1016.01
2017-12-04T09:55:34.983Z,1016.18
2017-12-04T09:56:34.812Z,1016.16
2017-12-04T09:58:27.983Z,1016.20
2017-12-04T09:59:27.974Z,1016.28
2017-12-04T10:01:21.150Z,1016.28
2017-12-04T10:02:21.147Z,1016.21
2017-12-04T10:04:14.303Z,1016.09
2017-12-04T10:05:14.299Z,1015.99
2017-12-04T10:07:07.456Z,1015.97
2017-12-04T10:08:07.459Z,1016.05
2017-12-04T10:10:00.607Z,1016.14
2017-12-04T10:11:00.606Z,1016.09
2017-12-04T10:12:53.754Z,1016.12
2017-12-04T10:13:53.764Z,1016.13
2017-12-04T10:15:46.920Z,1016.15
2017-12-04T10:16:46.908Z,1016.14
2017-12-04T10:18:40.041Z,1016.18
2017-12-04T10:19:40.059Z,1016.17
2017-12-04T10:21:33.218Z,1016.22
2017-12-04T10:22:33.219Z,1016.21
2017-12-04T10:24:26.362Z,1016.27
2017-12-04T10:25:26.389Z,1016.30
2017-12-04T10:27:19.529Z,1016.28
2017-12-04T10:28:19.530Z,1016.32
2017-12-04T10:30:12.680Z,1016.30
2017-12-04T10:31:12.702Z,1016.31
2017-12-04T10:33:05.863Z,1016.35
2017-12-04T10:34:05.854Z,1016.33
2017-12-04T10:35:58.987Z,1016.31
2017-12-04T10:36:59.000Z,1016.40
2017-12-04T10:39:03.846Z,1016.37
2017-12-04T10:40:03.842Z,1016.36
2017-12-04T10:41:57.009Z,1016.33
2017-12-04T10:42:57.007Z,1016.32
2017-12-04T10:44:50.181Z,1016.33
2017-12-04T10:45:50.167Z,1016.31
2017-12-04T10:47:43.319Z,1016.32
2017-12-04T10:48:43.356Z,1016.33
2017-12-04T10:50:36.536Z,1016.28
2017-12-04T10:51:36.539Z,1016.27
2017-12-04T10:53:29.703Z,1016.35
2017-12-04T10:54:29.714Z,1016.35
2017-12-04T10:56:22.963Z,1016.37
2017-12-04T10:57:22.963Z,1016.34
2017-12-04T10:59:16.112Z,1016.40
2017-12-04T11:00:16.153Z,1016.37
2017-12-04T11:02:09.293Z,1016.41
2017-12-04T11:03:09.297Z,1016.41
2017-12-04T11:05:02.439Z,1016.47
2017-12-04T11:06:02.434Z,1016.47
2017-12-04T11:07:55.603Z,1016.45
2017-12-04T11:08:55.611Z,1016.49
2017-12-04T11:10:48.758Z,1016.50
2017-12-04T11:11:48.764Z,1016.55
2017-12-04T11:13:41.921Z,1016.52
2017-12-04T11:14:41.935Z,1016.49
2017-12-04T11:16:35.063Z,1016.53
2017-12-04T11:17:35.086Z,1016.50
2017-12-04T11:19:28.343Z,1016.49
2017-12-04T11:20:28.336Z,1016.49
2017-12-04T11:22:21.508Z,1016.51
2017-12-04T11:23:21.512Z,1016.51
2017-12-04T11:25:14.677Z,1016.57
2017-12-04T11:26:14.675Z,1016.53
2017-12-04T11:28:07.823Z,1016.56
2017-12-04T11:29:07.842Z,1016.59
2017-12-04T11:31:00.995Z,1016.61
2017-12-04T11:32:00.998Z,1016.55
2017-12-04T11:33:54.141Z,1016.65
2017-12-04T11:34:54.152Z,1016.60
2017-12-04T11:36:47.322Z,1016.58
2017-12-04T11:37:47.316Z,1016.61
2017-12-04T11:39:40.458Z,1016.64
2017-12-04T11:40:40.482Z,1016.65
2017-12-04T11:42:33.663Z,1016.64
2017-12-04T11:43:33.670Z,1016.66
2017-12-04T11:45:27.559Z,1016.73
2017-12-04T11:46:26.903Z,1016.76
2017-12-04T11:48:20.051Z,1016.75
2017-12-04T11:49:20.059Z,1016.73
2017-12-04T11:51:13.215Z,1016.79
2017-12-04T11:52:13.219Z,1016.82
2017-12-04T11:54:06.372Z,1016.88
2017-12-04T11:55:06.381Z,1016.91
2017-12-04T11:56:59.534Z,1016.99
2017-12-04T11:57:59.541Z,1016.99
2017-12-04T11:59:52.832Z,1017.03
2017-12-04T12:00:52.821Z,1016.93
2017-12-04T12:02:45.969Z,1017.04
2017-12-04T12:03:45.986Z,1017.07
2017-12-04T12:05:39.156Z,1017.02
2017-12-04T12:06:39.137Z,1017.04
2017-12-04T12:08:32.279Z,1017.01
2017-12-04T12:09:32.300Z,1017.02
2017-12-04T12:11:25.461Z,1017.06
2017-12-04T12:12:25.455Z,1017.05
2017-12-04T12:14:18.632Z,1017.05
2017-12-04T12:15:18.651Z,1017.10
2017-12-04T12:17:11.863Z,1017.10
2017-12-04T12:18:11.883Z,1017.18
2017-12-04T12:20:05.015Z,1017.15
2017-12-04T12:21:05.031Z,1017.19
2017-12-04T12:22:58.184Z,1017.16
2017-12-04T12:23:58.196Z,1017.11
2017-12-04T12:25:51.344Z,1017.15
2017-12-04T12:26:51.362Z,1017.11
2017-12-04T12:28:44.538Z,1017.15
2017-12-04T12:29:44.582Z,1017.10
2017-12-04T12:31:37.777Z,1017.12
2017-12-04T12:32:37.773Z,1017.14
2017-12-04T12:34:30.950Z,1017.17
2017-12-04T12:35:30.934Z,1017.18
2017-12-04T12:37:24.117Z,1017.21
2017-12-04T12:38:24.101Z,1017.20
2017-12-04T12:40:17.250Z,1017.25
2017-12-04T12:41:17.257Z,1017.21
2017-12-04T12:43:10.406Z,1017.24
2017-12-04T12:44:10.417Z,1017.22
2017-12-04T12:46:03.572Z,1017.24
2017-12-04T12:47:03.578Z,1017.27
2017-12-04T12:48:56.713Z,1017.30
2017-12-04T12:49:56.744Z,1017.28
2017-12-04T12:51:49.926Z,1017.33
2017-12-04T12:52:49.917Z,1017.32
2017-12-04T12:54:43.138Z,1017.29
2017-12-04T12:55:43.199Z,1017.32
2017-12-04T12:57:36.318Z,1017.35
2017-12-04T12:58:36.330Z,1017.39
2017-12-04T13:00:29.471Z,1017.36
2017-12-04T13:01:29.487Z,1017.37
2017-12-04T13:03:22.634Z,1017.44
2017-12-04T13:04:22.646Z,1017.46
2017-12-04T13:06:15.789Z,1017.48
2017-12-04T13:07:15.809Z,1017.48
2017-12-04T13:09:08.959Z,1017.50
2017-12-04T13:10:08.962Z,1017.54
2017-12-04T13:12:02.106Z,1017.49
2017-12-04T13:13:02.130Z,1017.48
2017-12-04T13:14:55.311Z,1017.47
2017-12-04T13:15:55.299Z,1017.55
2017-12-04T13:17:48.508Z,1017.54
2017-12-04T13:18:48.515Z,1017.55
2017-12-04T13:20:41.757Z,1017.59
2017-12-04T13:21:41.699Z,1017.58
2017-12-04T13:23:34.913Z,1017.59
2017-12-04T13:24:34.864Z,1017.63
2017-12-04T13:26:28.024Z,1017.65
2017-12-04T13:27:28.020Z,1017.61
2017-12-04T13:29:21.162Z,1017.65
2017-12-04T13:30:21.179Z,1017.63
2017-12-04T13:32:14.371Z,1017.63
2017-12-04T13:33:14.353Z,1017.66
2017-12-04T13:35:07.490Z,1017.66
2017-12-04T13:36:07.512Z,1017.68
2017-12-04T13:38:00.675Z,1017.70
2017-12-04T13:39:00.674Z,1017.75
2017-12-04T13:40:53.805Z,1017.75
2017-12-04T13:41:53.825Z,1017.73
2017-12-04T13:43:47.002Z,1017.78
2017-12-04T13:44:46.989Z,1017.77
2017-12-04T13:46:40.132Z,1017.79
2017-12-04T13:47:40.152Z,1017.78
2017-12-04T13:49:33.359Z,1017.78
2017-12-04T13:50:33.328Z,1017.78
2017-12-04T13:52:26.456Z,1017.84
2017-12-04T13:53:26.474Z,1017.80
2017-12-04T13:55:19.636Z,1017.87
2017-12-04T13:56:19.636Z,1017.90
2017-12-04T13:58:12.774Z,1017.95
2017-12-04T13:59:12.787Z,1017.88
2017-12-04T14:01:05.965Z,1018.00
2017-12-04T14:02:05.971Z,1018.01
2017-12-04T14:03:59.107Z,1018.02
2017-12-04T14:04:59.114Z,1018.06
2017-12-04T14:06:52.267Z,1018.02
2017-12-04T14:07:52.281Z,1018.06
2017-12-04T14:09:45.420Z,1018.08
2017-12-04T14:10:45.432Z,1018.08
2017-12-04T14:12:38.590Z,1018.09
2017-12-04T14:13:38.597Z,1018.12
2017-12-04T14:15:31.753Z,1018.11
2017-12-04T14:16:31.775Z,1018.19
2017-12-04T14:18:24.937Z,1018.16
2017-12-04T14:19:24.941Z,1018.20
2017-12-04T14:21:18.092Z,1018.14
2017-12-04T14:22:18.101Z,1018.20
2017-12-04T14:24:11.257Z,1018.26
2017-12-04T14:25:11.266Z,1018.24
2017-12-04T14:27:04.396Z,1018.28
2017-12-04T14:28:04.407Z,1018.32
2017-12-04T14:29:57.557Z,1018.32
2017-12-04T14:30:57.560Z,1018.36
2017-12-04T14:32:50.704Z,1018.34
2017-12-04T14:33:50.724Z,1018.36
2017-12-04T14:35:43.878Z,1018.35
2017-12-04T14:36:43.872Z,1018.39
2017-12-04T14:38:37.027Z,1018.45
2017-12-04T14:39:37.045Z,1018.46
2017-12-04T14:41:30.212Z,1018.48
2017-12-04T14:42:30.201Z,1018.51
2017-12-04T14:44:23.356Z,1018.49
2017-12-04T14:45:23.366Z,1018.54
2017-12-04T14:47:16.520Z,1018.60
2017-12-04T14:48:16.556Z,1018.56
2017-12-04T14:50:09.735Z,1018.61
2017-12-04T14:51:09.755Z,1018.64
2017-12-04T14:53:02.997Z,1018.62
2017-12-04T14:54:02.916Z,1018.72
2017-12-04T14:55:56.055Z,1018.70
2017-12-04T14:56:56.079Z,1018.68
2017-12-04T14:58:49.233Z,1018.71
2017-12-04T14:59:49.236Z,1018.72
2017-12-04T15:01:42.407Z,1018.77
2017-12-04T15:02:42.422Z,1018.79
2017-12-04T15:04:35.587Z,1018.78
2017-12-04T15:05:35.577Z,1018.85
2017-12-04T15:07:28.726Z,1018.83
2017-12-04T15:08:28.739Z,1018.82
2017-12-04T15:10:21.918Z,1018.89
2017-12-04T15:11:21.905Z,1018.91
2017-12-04T15:13:15.051Z,1018.93
2017-12-04T15:14:15.062Z,1018.93
2017-12-04T15:16:08.241Z,1018.95
2017-12-04T15:17:08.229Z,1018.91
2017-12-04T15:19:02.132Z,1018.99
2017-12-04T15:20:01.383Z,1019.01
2017-12-04T15:21:54.552Z,1018.99
2017-12-04T15:22:54.553Z,1019.01
2017-12-04T15:24:47.689Z,1019.02
2017-12-04T15:25:47.721Z,1019.03
2017-12-04T15:27:40.869Z,1019.06
2017-12-04T15:28:40.877Z,1019.09
2017-12-04T15:30:34.009Z,1019.15
2017-12-04T15:31:34.028Z,1019.17
2017-12-04T15:33:27.192Z,1019.14
2017-12-04T15:34:27.191Z,1019.20
2017-12-04T15:36:20.355Z,1019.21
2017-12-04T15:37:20.343Z,1019.17
2017-12-04T15:39:13.508Z,1019.26
2017-12-04T15:40:13.521Z,1019.25
2017-12-04T15:42:06.654Z,1019.30
2017-12-04T15:43:06.665Z,1019.30
2017-12-04T15:44:59.842Z,1019.34
2017-12-04T15:45:59.839Z,1019.34
2017-12-04T15:47:52.981Z,1019.40
2017-12-04T15:48:53.042Z,1019.40
2017-12-04T15:50:46.404Z,1019.43
2017-12-04T15:51:46.158Z,1019.45
2017-12-04T15:53:39.320Z,1019.43
2017-12-04T15:54:39.324Z,1019.42
2017-12-04T15:56:32.465Z,1019.41
2017-12-04T15:57:32.469Z,1019.46
2017-12-04T15:59:25.620Z,1019.45
2017-12-04T16:00:25.644Z,1019.46
2017-12-04T16:02:18.798Z,1019.49
2017-12-04T16:03:18.795Z,1019.49
2017-12-04T16:05:11.940Z,1019.54
2017-12-04T16:06:11.959Z,1019.60
2017-12-04T16:08:05.130Z,1019.52
2017-12-04T16:09:05.144Z,1019.59
2017-12-04T16:10:58.278Z,1019.59
2017-12-04T16:11:58.285Z,1019.57
2017-12-04T16:13:51.435Z,1019.59
2017-12-04T16:14:51.429Z,1019.64
2017-12-04T16:16:44.587Z,1019.61
2017-12-04T16:17:44.611Z,1019.61
2017-12-04T16:19:37.755Z,1019.67
2017-12-04T16:20:37.765Z,1019.66
2017-12-04T16:22:31.037Z,1019.68
2017-12-04T16:23:30.925Z,1019.68
2017-12-04T16:25:24.067Z,1019.73
2017-12-04T16:26:24.075Z,1019.70
2017-12-04T16:28:17.227Z,1019.76
2017-12-04T16:29:17.242Z,1019.71
2017-12-04T16:31:10.414Z,1019.76
2017-12-04T16:32:10.413Z,1019.76
2017-12-04T16:34:03.566Z,1019.80
2017-12-04T16:35:03.572Z,1019.81
2017-12-04T16:36:56.733Z,1019.82
2017-12-04T16:37:56.720Z,1019.85
2017-12-04T16:39:49.869Z,1019.82
2017-12-04T16:40:49.885Z,1019.89
2017-12-04T16:42:43.047Z,1019.91
2017-12-04T16:43:43.055Z,1019.87
2017-12-04T16:45:36.194Z,1019.84
2017-12-04T16:46:36.204Z,1019.87
2017-12-04T16:48:29.433Z,1019.93
2017-12-04T16:49:29.379Z,1019.89
2017-12-04T16:51:22.503Z,1019.95
2017-12-04T16:52:22.522Z,1020.01
2017-12-04T16:54:15.720Z,1020.03
2017-12-04T16:55:15.713Z,1020.07
2017-12-04T16:57:08.826Z,1020.04
2017-12-04T16:58:08.851Z,1020.09
2017-12-04T17:01:02.015Z,1020.11
2017-12-04T17:02:55.156Z,1020.16
2017-12-04T17:03:55.163Z,1020.16
2017-12-04T17:05:48.337Z,1020.20
2017-12-04T17:06:48.323Z,1020.20
2017-12-04T17:08:41.503Z,1020.23
2017-12-04T17:09:41.484Z,1020.24
2017-12-04T17:11:34.648Z,1020.34
2017-12-04T17:12:34.661Z,1020.29
2017-12-04T17:14:27.835Z,1020.31
2017-12-04T17:15:27.825Z,1020.35
2017-12-04T17:17:20.967Z,1020.39
2017-12-04T17:18:20.994Z,1020.44
2017-12-04T17:20:14.137Z,1020.45
2017-12-04T17:21:14.160Z,1020.51
2017-12-04T17:23:07.328Z,1020.56
2017-12-04T17:24:07.319Z,1020.58
2017-12-04T17:26:00.495Z,1020.55
2017-12-04T17:27:00.516Z,1020.59
2017-12-04T17:28:53.693Z,1020.60